sensor_id;sensor_type;location;lat;lon;timestamp;pressure;altitude;pressure_sealevel;temperature;humidity
3294;BME280;1659;51.470;6.770;2023-12-14T00:01:16;100564.19;;;7.76;100.00
3294;BME280;1659;51.470;6.770;2023-12-14T00:04:07;100567.69;;;7.73;100.00
3294;BME280;1659;51.470;6.770;2023-12-14T00:06:58;100565.97;;;7.72;100.00
3294;BME280;1659;51.470;6.770;2023-12-14T00:09:50;100568.63;;;7.71;100.00
3294;BME280;1659;51.470;6.770;2023-12-14T00:12:41;100571.25;;;7.68;100.00
3294;BME280;1659;51.470;6.770;2023-12-14T00:15:32;100580.94;;;7.66;100.00
3294;BME280;1659;51.470;6.770;2023-12-14T00:18:23;100583.59;;;7.61;100.00
3294;BME280;1659;51.470;6.770;2023-12-14T00:21:14;100587.13;;;7.60;100.00
3294;BME280;1659;51.470;6.770;2023-12-14T00:24:06;100595.91;;;7.57;100.00
3294;BME280;1659;51.470;6.770;2023-12-14T00:26:59;100603.81;;;7.56;100.00
3294;BME280;1659;51.470;6.770;2023-12-14T00:29:49;100602.94;;;7.55;100.00
3294;BME280;1659;51.470;6.770;2023-12-14T00:32:40;100612.59;;;7.55;100.00
3294;BME280;1659;51.470;6.770;2023-12-14T00:35:31;100616.97;;;7.53;100.00
3294;BME280;1659;51.470;6.770;2023-12-14T00:38:22;100630.13;;;7.53;100.00
3294;BME280;1659;51.470;6.770;2023-12-14T00:41:13;100633.66;;;7.52;100.00
3294;BME280;1659;51.470;6.770;2023-12-14T00:44:06;100645.94;;;7.50;100.00
3294;BME280;1659;51.470;6.770;2023-12-14T00:46:56;100642.47;;;7.46;100.00
3294;BME280;1659;51.470;6.770;2023-12-14T00:49:47;100651.22;;;7.44;100.00
3294;BME280;1659;51.470;6.770;2023-12-14T00:52:38;100660.91;;;7.40;100.00
3294;BME280;1659;51.470;6.770;2023-12-14T00:55:29;100676.69;;;7.35;100.00
3294;BME280;1659;51.470;6.770;2023-12-14T00:58:20;100681.09;;;7.32;100.00
3294;BME280;1659;51.470;6.770;2023-12-14T01:01:12;100694.28;;;7.29;100.00
3294;BME280;1659;51.470;6.770;2023-12-14T01:04:03;100694.31;;;7.24;100.00
3294;BME280;1659;51.470;6.770;2023-12-14T01:06:54;100701.34;;;7.22;100.00
3294;BME280;1659;51.470;6.770;2023-12-14T01:09:44;100706.59;;;7.21;100.00
3294;BME280;1659;51.470;6.770;2023-12-14T01:12:35;100709.22;;;7.19;100.00
3294;BME280;1659;51.470;6.770;2023-12-14T01:15:26;100713.63;;;7.18;100.00
3294;BME280;1659;51.470;6.770;2023-12-14T01:18:18;100711.88;;;7.13;100.00
3294;BME280;1659;51.470;6.770;2023-12-14T01:21:09;100724.16;;;7.12;100.00
3294;BME280;1659;51.470;6.770;2023-12-14T01:24:00;100724.16;;;7.11;100.00
3294;BME280;1659;51.470;6.770;2023-12-14T01:26:51;100718.03;;;7.07;100.00
3294;BME280;1659;51.470;6.770;2023-12-14T01:29:42;100728.56;;;7.04;100.00
3294;BME280;1659;51.470;6.770;2023-12-14T01:32:33;100738.22;;;7.02;100.00
3294;BME280;1659;51.470;6.770;2023-12-14T01:35:25;100747.00;;;6.99;100.00
3294;BME280;1659;51.470;6.770;2023-12-14T01:38:16;100747.00;;;6.99;100.00
3294;BME280;1659;51.470;6.770;2023-12-14T01:41:07;100763.63;;;7.00;100.00
3294;BME280;1659;51.470;6.770;2023-12-14T01:43:58;100780.28;;;6.97;100.00
3294;BME280;1659;51.470;6.770;2023-12-14T01:46:49;100774.19;;;6.92;100.00
3294;BME280;1659;51.470;6.770;2023-12-14T01:49:40;100777.66;;;6.88;100.00
3294;BME280;1659;51.470;6.770;2023-12-14T01:52:32;100796.06;;;6.88;100.00
3294;BME280;1659;51.470;6.770;2023-12-14T01:55:23;100795.19;;;6.86;100.00
3294;BME280;1659;51.470;6.770;2023-12-14T01:58:14;100802.22;;;6.83;100.00
3294;BME280;1659;51.470;6.770;2023-12-14T02:01:11;100809.22;;;6.82;100.00
3294;BME280;1659;51.470;6.770;2023-12-14T02:04:05;100819.72;;;6.79;100.00
3294;BME280;1659;51.470;6.770;2023-12-14T02:06:56;100811.84;;;6.77;100.00
3294;BME280;1659;51.470;6.770;2023-12-14T02:09:48;100817.09;;;6.76;100.00
3294;BME280;1659;51.470;6.770;2023-12-14T02:12:39;100823.25;;;6.75;100.00
3294;BME280;1659;51.470;6.770;2023-12-14T02:15:30;100828.50;;;6.73;100.00
3294;BME280;1659;51.470;6.770;2023-12-14T02:18:21;100832.88;;;6.68;100.00
3294;BME280;1659;51.470;6.770;2023-12-14T02:21:12;100831.16;;;6.63;100.00
3294;BME280;1659;51.470;6.770;2023-12-14T02:24:05;100842.53;;;6.61;100.00
3294;BME280;1659;51.470;6.770;2023-12-14T02:26:56;100857.41;;;6.58;100.00
3294;BME280;1659;51.470;6.770;2023-12-14T02:29:47;100855.69;;;6.54;100.00
3294;BME280;1659;51.470;6.770;2023-12-14T02:32:38;100863.53;;;6.52;100.00
3294;BME280;1659;51.470;6.770;2023-12-14T02:35:29;100864.41;;;6.50;100.00
3294;BME280;1659;51.470;6.770;2023-12-14T02:38:20;100856.53;;;6.48;100.00
3294;BME280;1659;51.470;6.770;2023-12-14T02:41:12;100881.06;;;6.49;100.00
3294;BME280;1659;51.470;6.770;2023-12-14T02:44:03;100877.56;;;6.47;100.00
3294;BME280;1659;51.470;6.770;2023-12-14T02:46:54;100887.16;;;6.48;100.00
3294;BME280;1659;51.470;6.770;2023-12-14T02:49:45;100889.78;;;6.46;100.00
3294;BME280;1659;51.470;6.770;2023-12-14T02:52:36;100888.03;;;6.42;100.00
3294;BME280;1659;51.470;6.770;2023-12-14T02:55:27;100897.66;;;6.38;100.00
3294;BME280;1659;51.470;6.770;2023-12-14T02:58:19;100908.16;;;6.37;100.00
3294;BME280;1659;51.470;6.770;2023-12-14T03:01:10;100912.56;;;6.36;100.00
3294;BME280;1659;51.470;6.770;2023-12-14T03:04:01;100916.91;;;6.33;100.00
3294;BME280;1659;51.470;6.770;2023-12-14T03:06:52;100920.41;;;6.30;100.00
3294;BME280;1659;51.470;6.770;2023-12-14T03:09:43;100919.53;;;6.30;100.00
3294;BME280;1659;51.470;6.770;2023-12-14T03:12:34;100928.28;;;6.30;100.00
3294;BME280;1659;51.470;6.770;2023-12-14T03:15:26;100923.91;;;6.29;100.00
3294;BME280;1659;51.470;6.770;2023-12-14T03:18:17;100938.75;;;6.29;100.00
3294;BME280;1659;51.470;6.770;2023-12-14T03:21:08;100933.50;;;6.29;100.00
3294;BME280;1659;51.470;6.770;2023-12-14T03:23:59;100943.16;;;6.28;100.00
3294;BME280;1659;51.470;6.770;2023-12-14T11:05:43;101718.16;;;5.66;100.00
3294;BME280;1659;51.470;6.770;2023-12-14T11:08:09;101720.84;;;5.69;100.00
3294;BME280;1659;51.470;6.770;2023-12-14T11:10:39;101727.91;;;5.72;100.00
3294;BME280;1659;51.470;6.770;2023-12-14T11:13:07;101725.34;;;5.76;100.00
3294;BME280;1659;51.470;6.770;2023-12-14T11:15:35;101731.50;;;5.80;100.00
3294;BME280;1659;51.470;6.770;2023-12-14T11:18:22;101736.84;;;5.84;100.00
3294;BME280;1659;51.470;6.770;2023-12-14T11:20:54;101743.88;;;5.85;100.00
3294;BME280;1659;51.470;6.770;2023-12-14T11:23:30;101743.91;;;5.89;100.00
3294;BME280;1659;51.470;6.770;2023-12-14T11:25:58;101741.31;;;5.90;100.00
3294;BME280;1659;51.470;6.770;2023-12-14T11:28:25;101750.09;;;5.91;100.00
3294;BME280;1659;51.470;6.770;2023-12-14T11:30:52;101754.38;;;5.89;100.00
3294;BME280;1659;51.470;6.770;2023-12-14T11:33:18;101751.75;;;5.89;100.00
3294;BME280;1659;51.470;6.770;2023-12-14T11:35:45;101764.00;;;5.88;100.00
3294;BME280;1659;51.470;6.770;2023-12-14T11:38:13;101760.50;;;5.88;100.00
3294;BME280;1659;51.470;6.770;2023-12-14T11:40:40;101757.88;;;5.88;100.00
3294;BME280;1659;51.470;6.770;2023-12-14T11:43:06;101758.75;;;5.86;100.00
3294;BME280;1659;51.470;6.770;2023-12-14T11:45:33;101762.28;;;5.90;100.00
3294;BME280;1659;51.470;6.770;2023-12-14T11:48:01;101765.81;;;5.91;100.00
3294;BME280;1659;51.470;6.770;2023-12-14T11:50:31;101764.94;;;5.92;100.00
3294;BME280;1659;51.470;6.770;2023-12-14T11:52:58;101775.34;;;5.87;100.00
3294;BME280;1659;51.470;6.770;2023-12-14T11:55:27;101775.34;;;5.85;100.00
3294;BME280;1659;51.470;6.770;2023-12-14T11:57:53;101770.06;;;5.84;100.00
3294;BME280;1659;51.470;6.770;2023-12-14T12:00:23;101769.16;;;5.83;100.00
3294;BME280;1659;51.470;6.770;2023-12-14T12:02:50;101779.66;;;5.83;100.00
3294;BME280;1659;51.470;6.770;2023-12-14T12:05:17;101770.06;;;5.84;100.00
3294;BME280;1659;51.470;6.770;2023-12-14T12:07:44;101767.47;;;5.85;100.00
3294;BME280;1659;51.470;6.770;2023-12-14T12:10:11;101771.81;;;5.85;100.00
3294;BME280;1659;51.470;6.770;2023-12-14T12:12:39;101773.56;;;5.84;100.00
3294;BME280;1659;51.470;6.770;2023-12-14T12:15:07;101777.94;;;5.84;100.00
3294;BME280;1659;51.470;6.770;2023-12-14T12:17:33;101777.03;;;5.83;100.00
3294;BME280;1659;51.470;6.770;2023-12-14T12:20:04;101773.47;;;5.80;100.00
3294;BME280;1659;51.470;6.770;2023-12-14T12:22:31;101772.56;;;5.78;100.00
3294;BME280;1659;51.470;6.770;2023-12-14T12:24:57;101781.31;;;5.78;100.00
3294;BME280;1659;51.470;6.770;2023-12-14T12:27:26;101785.75;;;5.81;100.00
3294;BME280;1659;51.470;6.770;2023-12-14T12:29:53;101786.69;;;5.84;100.00
3294;BME280;1659;51.470;6.770;2023-12-14T12:32:20;101776.22;;;5.86;100.00
3294;BME280;1659;51.470;6.770;2023-12-14T12:34:47;101781.56;;;5.91;100.00
3294;BME280;1659;51.470;6.770;2023-12-14T12:37:13;101793.72;;;5.87;100.00
3294;BME280;1659;51.470;6.770;2023-12-14T12:39:40;101797.28;;;5.89;100.00
3294;BME280;1659;51.470;6.770;2023-12-14T12:42:06;101807.59;;;5.81;100.00
3294;BME280;1659;51.470;6.770;2023-12-14T12:44:33;101803.13;;;5.74;100.00
3294;BME280;1659;51.470;6.770;2023-12-14T12:47:01;101804.81;;;5.71;100.00
3294;BME280;1659;51.470;6.770;2023-12-14T12:49:28;101809.13;;;5.67;100.00
3294;BME280;1659;51.470;6.770;2023-12-14T12:51:55;101802.97;;;5.65;100.00
3294;BME280;1659;51.470;6.770;2023-12-14T12:54:21;101806.47;;;5.65;100.00
3294;BME280;1659;51.470;6.770;2023-12-14T12:56:48;101803.84;;;5.65;100.00
3294;BME280;1659;51.470;6.770;2023-12-14T12:59:14;101807.34;;;5.66;100.00
3294;BME280;1659;51.470;6.770;2023-12-14T13:01:42;101817.00;;;5.68;100.00
3294;BME280;1659;51.470;6.770;2023-12-14T13:04:19;101824.97;;;5.73;100.00
3294;BME280;1659;51.470;6.770;2023-12-14T13:06:46;101824.94;;;5.72;100.00
3294;BME280;1659;51.470;6.770;2023-12-14T13:09:13;101826.63;;;5.70;100.00
3294;BME280;1659;51.470;6.770;2023-12-14T13:11:40;101832.75;;;5.68;100.00
3294;BME280;1659;51.470;6.770;2023-12-14T13:14:07;101830.09;;;5.67;100.00
3294;BME280;1659;51.470;6.770;2023-12-14T13:16:33;101830.03;;;5.64;100.00
3294;BME280;1659;51.470;6.770;2023-12-14T13:19:00;101835.19;;;5.61;100.00
3294;BME280;1659;51.470;6.770;2023-12-14T13:21:30;101842.16;;;5.59;100.00
3294;BME280;1659;51.470;6.770;2023-12-14T13:23:56;101840.34;;;5.55;100.00
3294;BME280;1659;51.470;6.770;2023-12-14T13:26:23;101843.81;;;5.54;100.00
3294;BME280;1659;51.470;6.770;2023-12-14T13:28:50;101846.44;;;5.54;100.00
3294;BME280;1659;51.470;6.770;2023-12-14T13:31:17;101855.19;;;5.53;100.00
3294;BME280;1659;51.470;6.770;2023-12-14T13:33:45;101844.66;;;5.51;100.00
3294;BME280;1659;51.470;6.770;2023-12-14T13:36:12;101851.63;;;5.49;100.00
3294;BME280;1659;51.470;6.770;2023-12-14T13:38:41;101853.31;;;5.47;100.00
3294;BME280;1659;51.470;6.770;2023-12-14T13:41:08;101849.78;;;5.46;100.00
3294;BME280;1659;51.470;6.770;2023-12-14T13:43:35;101854.13;;;5.44;100.00
3294;BME280;1659;51.470;6.770;2023-12-14T13:46:01;101863.75;;;5.44;100.00
3294;BME280;1659;51.470;6.770;2023-12-14T13:48:28;101873.34;;;5.45;100.00
3294;BME280;1659;51.470;6.770;2023-12-14T13:50:55;101881.22;;;5.45;100.00
3294;BME280;1659;51.470;6.770;2023-12-14T13:53:22;101883.81;;;5.43;100.00
3294;BME280;1659;51.470;6.770;2023-12-14T13:55:50;101897.78;;;5.42;100.00
3294;BME280;1659;51.470;6.770;2023-12-14T13:58:17;101898.59;;;5.40;100.00
3294;BME280;1659;51.470;6.770;2023-12-14T14:00:44;101912.56;;;5.39;100.00
3294;BME280;1659;51.470;6.770;2023-12-14T14:03:10;101917.81;;;5.39;100.00
3294;BME280;1659;51.470;6.770;2023-12-14T14:05:37;101923.06;;;5.39;100.00
3294;BME280;1659;51.470;6.770;2023-12-14T14:08:04;101922.19;;;5.38;100.00
3294;BME280;1659;51.470;6.770;2023-12-14T14:10:30;101923.84;;;5.36;100.00
3294;BME280;1659;51.470;6.770;2023-12-14T14:12:58;101935.22;;;5.35;100.00
3294;BME280;1659;51.470;6.770;2023-12-14T14:15:25;101944.78;;;5.33;100.00
3294;BME280;1659;51.470;6.770;2023-12-14T14:17:51;101954.34;;;5.33;100.00
3294;BME280;1659;51.470;6.770;2023-12-14T14:20:19;101964.84;;;5.33;100.00
3294;BME280;1659;51.470;6.770;2023-12-14T14:22:47;101967.44;;;5.31;100.00
3294;BME280;1659;51.470;6.770;2023-12-14T14:25:14;101970.91;;;5.30;100.00
3294;BME280;1659;51.470;6.770;2023-12-14T14:27:40;101968.25;;;5.28;100.00
3294;BME280;1659;51.470;6.770;2023-12-14T14:30:09;101977.78;;;5.25;100.00
3294;BME280;1659;51.470;6.770;2023-12-14T14:32:36;101979.50;;;5.23;100.00
3294;BME280;1659;51.470;6.770;2023-12-14T14:35:03;101987.34;;;5.23;100.00
3294;BME280;1659;51.470;6.770;2023-12-14T14:37:30;101989.97;;;5.23;100.00
3294;BME280;1659;51.470;6.770;2023-12-14T14:39:57;101987.34;;;5.23;100.00
3294;BME280;1659;51.470;6.770;2023-12-14T14:42:23;101987.34;;;5.23;100.00
3294;BME280;1659;51.470;6.770;2023-12-14T14:44:50;101998.75;;;5.25;100.00
3294;BME280;1659;51.470;6.770;2023-12-14T14:47:18;101997.88;;;5.24;100.00
3294;BME280;1659;51.470;6.770;2023-12-14T14:49:44;102002.22;;;5.24;100.00
3294;BME280;1659;51.470;6.770;2023-12-14T14:52:11;102016.22;;;5.24;100.00
3294;BME280;1659;51.470;6.770;2023-12-14T14:54:37;102011.88;;;5.25;100.00
3294;BME280;1659;51.470;6.770;2023-12-14T14:57:05;102011.03;;;5.26;100.00
3294;BME280;1659;51.470;6.770;2023-12-14T14:59:32;102008.41;;;5.26;100.00
3294;BME280;1659;51.470;6.770;2023-12-14T15:01:58;102017.16;;;5.26;100.00
3294;BME280;1659;51.470;6.770;2023-12-14T15:04:27;102015.41;;;5.27;100.00
3294;BME280;1659;51.470;6.770;2023-12-14T15:06:54;102031.16;;;5.28;100.00
3294;BME280;1659;51.470;6.770;2023-12-14T15:09:21;102030.31;;;5.29;100.00
3294;BME280;1659;51.470;6.770;2023-12-14T15:11:47;102028.53;;;5.28;100.00
3294;BME280;1659;51.470;6.770;2023-12-14T15:14:14;102039.00;;;5.27;100.00
3294;BME280;1659;51.470;6.770;2023-12-14T15:16:42;102041.59;;;5.27;100.00
3294;BME280;1659;51.470;6.770;2023-12-14T15:19:08;102041.59;;;5.27;100.00
3294;BME280;1659;51.470;6.770;2023-12-14T15:21:37;102041.59;;;5.27;100.00
3294;BME280;1659;51.470;6.770;2023-12-14T15:24:05;102044.22;;;5.27;100.00
3294;BME280;1659;51.470;6.770;2023-12-14T15:26:32;102052.16;;;5.30;100.00
3294;BME280;1659;51.470;6.770;2023-12-14T15:28:58;102056.53;;;5.31;100.00
3294;BME280;1659;51.470;6.770;2023-12-14T15:31:25;102064.44;;;5.33;100.00
3294;BME280;1659;51.470;6.770;2023-12-14T15:33:52;102065.34;;;5.33;100.00
3294;BME280;1659;51.470;6.770;2023-12-14T15:36:18;102072.34;;;5.34;100.00
3294;BME280;1659;51.470;6.770;2023-12-14T15:38:46;102067.09;;;5.34;100.00
3294;BME280;1659;51.470;6.770;2023-12-14T15:41:13;102068.81;;;5.32;100.00
3294;BME280;1659;51.470;6.770;2023-12-14T15:43:40;102075.84;;;5.33;100.00
3294;BME280;1659;51.470;6.770;2023-12-14T15:46:07;102084.53;;;5.32;100.00
3294;BME280;1659;51.470;6.770;2023-12-14T15:48:34;102082.75;;;5.31;100.00
3294;BME280;1659;51.470;6.770;2023-12-14T15:51:02;102083.59;;;5.28;100.00
3294;BME280;1659;51.470;6.770;2023-12-14T15:53:29;102095.81;;;5.28;100.00
3294;BME280;1659;51.470;6.770;2023-12-14T15:55:57;102091.41;;;5.27;100.00
3294;BME280;1659;51.470;6.770;2023-12-14T15:58:24;102099.28;;;5.27;100.00
3294;BME280;1659;51.470;6.770;2023-12-14T16:00:51;102094.06;;;5.28;100.00
3294;BME280;1659;51.470;6.770;2023-12-14T16:03:18;102099.31;;;5.28;100.00
3294;BME280;1659;51.470;6.770;2023-12-14T16:05:44;102104.56;;;5.28;100.00
3294;BME280;1659;51.470;6.770;2023-12-14T16:08:11;102107.16;;;5.28;100.00
3294;BME280;1659;51.470;6.770;2023-12-14T16:10:38;102111.53;;;5.28;100.00
3294;BME280;1659;51.470;6.770;2023-12-14T16:13:06;102119.41;;;5.28;100.00
3294;BME280;1659;51.470;6.770;2023-12-14T16:15:32;102128.19;;;5.30;100.00
3294;BME280;1659;51.470;6.770;2023-12-14T16:17:59;102132.56;;;5.31;100.00
3294;BME280;1659;51.470;6.770;2023-12-14T16:20:25;102142.16;;;5.30;100.00
3294;BME280;1659;51.470;6.770;2023-12-14T16:22:52;102145.66;;;5.31;100.00
3294;BME280;1659;51.470;6.770;2023-12-14T16:25:19;102148.28;;;5.29;100.00
3294;BME280;1659;51.470;6.770;2023-12-14T16:27:46;102157.84;;;5.29;100.00
3294;BME280;1659;51.470;6.770;2023-12-14T16:30:14;102158.75;;;5.29;100.00
3294;BME280;1659;51.470;6.770;2023-12-14T16:32:41;102159.63;;;5.30;100.00
3294;BME280;1659;51.470;6.770;2023-12-14T16:35:08;102164.00;;;5.29;100.00
3294;BME280;1659;51.470;6.770;2023-12-14T16:37:35;102171.00;;;5.30;100.00
3294;BME280;1659;51.470;6.770;2023-12-14T16:40:02;102178.81;;;5.29;100.00
3294;BME280;1659;51.470;6.770;2023-12-14T16:42:28;102169.19;;;5.28;100.00
3294;BME280;1659;51.470;6.770;2023-12-14T16:44:55;102177.06;;;5.28;100.00
3294;BME280;1659;51.470;6.770;2023-12-14T16:47:23;102181.41;;;5.27;100.00
3294;BME280;1659;51.470;6.770;2023-12-14T16:49:49;102177.84;;;5.25;100.00
3294;BME280;1659;51.470;6.770;2023-12-14T16:52:16;102187.47;;;5.25;100.00
3294;BME280;1659;51.470;6.770;2023-12-14T16:54:43;102184.84;;;5.25;100.00
3294;BME280;1659;51.470;6.770;2023-12-14T16:57:10;102185.69;;;5.24;100.00
3294;BME280;1659;51.470;6.770;2023-12-14T16:59:36;102189.22;;;5.24;100.00
3294;BME280;1659;51.470;6.770;2023-12-14T17:02:05;102191.81;;;5.24;100.00
3294;BME280;1659;51.470;6.770;2023-12-14T17:04:33;102190.88;;;5.22;100.00
3294;BME280;1659;51.470;6.770;2023-12-14T17:06:59;102203.97;;;5.21;100.00
3294;BME280;1659;51.470;6.770;2023-12-14T17:09:26;102212.66;;;5.20;100.00
3294;BME280;1659;51.470;6.770;2023-12-14T17:11:54;102214.41;;;5.19;100.00
3294;BME280;1659;51.470;6.770;2023-12-14T17:14:21;102220.44;;;5.17;100.00
3294;BME280;1659;51.470;6.770;2023-12-14T17:16:48;102224.75;;;5.15;100.00
3294;BME280;1659;51.470;6.770;2023-12-14T17:19:15;102227.22;;;5.10;100.00
3294;BME280;1659;51.470;6.770;2023-12-14T17:21:43;102224.47;;;5.04;100.00
3294;BME280;1659;51.470;6.770;2023-12-14T17:24:09;102232.13;;;4.98;100.00
3294;BME280;1659;51.470;6.770;2023-12-14T17:26:36;102232.88;;;4.92;100.00
3294;BME280;1659;51.470;6.770;2023-12-14T17:29:04;102241.44;;;4.86;100.00
3294;BME280;1659;51.470;6.770;2023-12-14T17:31:34;102242.16;;;4.81;100.00
3294;BME280;1659;51.470;6.770;2023-12-14T17:34:01;102246.38;;;4.76;100.00
3294;BME280;1659;51.470;6.770;2023-12-14T17:36:27;102254.91;;;4.70;100.00
3294;BME280;1659;51.470;6.770;2023-12-14T17:38:55;102249.47;;;4.62;100.00
3294;BME280;1659;51.470;6.770;2023-12-14T17:41:22;102258.88;;;4.56;100.00
3294;BME280;1659;51.470;6.770;2023-12-14T17:43:48;102257.84;;;4.50;100.00
3294;BME280;1659;51.470;6.770;2023-12-14T17:46:15;102254.25;;;4.47;100.00
3294;BME280;1659;51.470;6.770;2023-12-14T17:48:43;102265.47;;;4.43;100.00
3294;BME280;1659;51.470;6.770;2023-12-14T17:51:10;102260.03;;;4.37;100.00
3294;BME280;1659;51.470;6.770;2023-12-14T17:53:36;102269.44;;;4.30;100.00
3294;BME280;1659;51.470;6.770;2023-12-14T17:56:06;102265.75;;;4.23;100.00
3294;BME280;1659;51.470;6.770;2023-12-14T17:58:33;102278.72;;;4.20;100.00
3294;BME280;1659;51.470;6.770;2023-12-14T18:01:00;102272.47;;;4.15;100.00
3294;BME280;1659;51.470;6.770;2023-12-14T18:03:28;102274.13;;;4.13;100.00
3294;BME280;1659;51.470;6.770;2023-12-14T18:05:56;102273.28;;;4.14;100.00
3294;BME280;1659;51.470;6.770;2023-12-14T18:08:23;102267.22;;;4.15;100.00
3294;BME280;1659;51.470;6.770;2023-12-14T18:10:49;102276.94;;;4.19;100.00
3294;BME280;1659;51.470;6.770;2023-12-14T18:13:17;102266.63;;;4.24;100.00
3294;BME280;1659;51.470;6.770;2023-12-14T18:15:44;102272.91;;;4.29;100.00
3294;BME280;1659;51.470;6.770;2023-12-14T18:18:10;102277.44;;;4.34;100.00
3294;BME280;1659;51.470;6.770;2023-12-14T18:20:37;102275.84;;;4.40;100.00
3294;BME280;1659;51.470;6.770;2023-12-14T18:23:03;102283.69;;;4.40;100.00
3294;BME280;1659;51.470;6.770;2023-12-14T18:25:30;102279.28;;;4.37;100.00
3294;BME280;1659;51.470;6.770;2023-12-14T18:27:57;102285.22;;;4.33;100.00
3294;BME280;1659;51.470;6.770;2023-12-14T18:30:28;102298.19;;;4.28;100.00
3294;BME280;1659;51.470;6.770;2023-12-14T18:32:55;102305.88;;;4.24;100.00
3294;BME280;1659;51.470;6.770;2023-12-14T18:35:21;102315.34;;;4.20;100.00
3294;BME280;1659;51.470;6.770;2023-12-14T18:37:48;102309.13;;;4.16;100.00
3294;BME280;1659;51.470;6.770;2023-12-14T18:40:14;102312.59;;;4.15;100.00
3294;BME280;1659;51.470;6.770;2023-12-14T18:42:44;102319.38;;;4.10;100.00
3294;BME280;1659;51.470;6.770;2023-12-14T18:45:10;102318.41;;;4.07;100.00
3294;BME280;1659;51.470;6.770;2023-12-14T18:47:38;102327.00;;;4.03;100.00
3294;BME280;1659;51.470;6.770;2023-12-14T18:50:05;102332.91;;;3.97;100.00
3294;BME280;1659;51.470;6.770;2023-12-14T18:52:32;102341.47;;;3.93;100.00
3294;BME280;1659;51.470;6.770;2023-12-14T18:54:59;102338.81;;;3.91;100.00
3294;BME280;1659;51.470;6.770;2023-12-14T18:57:25;102337.97;;;3.92;100.00
3294;BME280;1659;51.470;6.770;2023-12-14T18:59:52;102337.25;;;3.96;100.00
3294;BME280;1659;51.470;6.770;2023-12-14T19:02:18;102345.19;;;4.00;100.00
3294;BME280;1659;51.470;6.770;2023-12-14T19:04:51;102347.03;;;4.02;100.00
3294;BME280;1659;51.470;6.770;2023-12-14T19:07:18;102345.38;;;4.04;100.00
3294;BME280;1659;51.470;6.770;2023-12-14T19:09:44;102348.97;;;4.08;100.00
3294;BME280;1659;51.470;6.770;2023-12-14T19:12:11;102356.06;;;4.12;100.00
3294;BME280;1659;51.470;6.770;2023-12-14T19:14:37;102357.13;;;4.17;100.00
3294;BME280;1659;51.470;6.770;2023-12-14T19:17:04;102367.75;;;4.22;100.00
3294;BME280;1659;51.470;6.770;2023-12-14T19:19:30;102367.94;;;4.28;100.00
3294;BME280;1659;51.470;6.770;2023-12-14T19:21:58;102373.34;;;4.32;100.00
3294;BME280;1659;51.470;6.770;2023-12-14T19:24:26;102373.50;;;4.37;100.00
3294;BME280;1659;51.470;6.770;2023-12-14T19:26:52;102369.25;;;4.41;100.00
3294;BME280;1659;51.470;6.770;2023-12-14T19:29:19;102373.72;;;4.45;100.00
3294;BME280;1659;51.470;6.770;2023-12-14T19:31:46;102380.81;;;4.47;100.00
3294;BME280;1659;51.470;6.770;2023-12-14T19:34:12;102368.66;;;4.49;100.00
3294;BME280;1659;51.470;6.770;2023-12-14T19:36:39;102374.00;;;4.54;100.00
3294;BME280;1659;51.470;6.770;2023-12-14T19:39:07;102379.31;;;4.56;100.00
3294;BME280;1659;51.470;6.770;2023-12-14T19:41:33;102381.16;;;4.58;100.00
3294;BME280;1659;51.470;6.770;2023-12-14T19:44:01;102377.66;;;4.59;100.00
3294;BME280;1659;51.470;6.770;2023-12-14T19:46:28;102380.38;;;4.62;100.00
3294;BME280;1659;51.470;6.770;2023-12-14T19:48:54;102383.06;;;4.64;100.00
3294;BME280;1659;51.470;6.770;2023-12-14T19:51:21;102387.47;;;4.65;100.00
3294;BME280;1659;51.470;6.770;2023-12-14T19:53:47;102394.56;;;4.69;100.00
3294;BME280;1659;51.470;6.770;2023-12-14T19:56:15;102392.94;;;4.72;100.00
3294;BME280;1659;51.470;6.770;2023-12-14T19:58:43;102398.34;;;4.77;100.00
3294;BME280;1659;51.470;6.770;2023-12-14T20:01:11;102401.19;;;4.85;100.00
3294;BME280;1659;51.470;6.770;2023-12-14T20:03:39;102406.53;;;4.88;100.00
3294;BME280;1659;51.470;6.770;2023-12-14T20:06:06;102403.03;;;4.89;100.00
3294;BME280;1659;51.470;6.770;2023-12-14T20:08:32;102397.81;;;4.89;100.00
3294;BME280;1659;51.470;6.770;2023-12-14T20:10:59;102405.72;;;4.90;100.00
3294;BME280;1659;51.470;6.770;2023-12-14T20:13:27;102404.88;;;4.91;100.00
3294;BME280;1659;51.470;6.770;2023-12-14T20:15:53;102410.19;;;4.93;100.00
3294;BME280;1659;51.470;6.770;2023-12-14T20:18:20;102411.06;;;4.94;100.00
3294;BME280;1659;51.470;6.770;2023-12-14T20:20:47;102418.09;;;4.95;100.00
3294;BME280;1659;51.470;6.770;2023-12-14T20:23:14;102424.25;;;4.97;100.00
3294;BME280;1659;51.470;6.770;2023-12-14T20:25:41;102419.91;;;4.97;100.00
3294;BME280;1659;51.470;6.770;2023-12-14T20:28:08;102432.13;;;4.97;100.00
3294;BME280;1659;51.470;6.770;2023-12-14T20:30:35;102433.81;;;4.96;100.00
3294;BME280;1659;51.470;6.770;2023-12-14T20:33:02;102440.81;;;4.96;100.00
3294;BME280;1659;51.470;6.770;2023-12-14T20:35:30;102435.56;;;4.96;100.00
3294;BME280;1659;51.470;6.770;2023-12-14T20:37:56;102444.31;;;4.96;100.00
3294;BME280;1659;51.470;6.770;2023-12-14T20:40:23;102439.94;;;4.95;100.00
3294;BME280;1659;51.470;6.770;2023-12-14T20:42:51;102441.69;;;4.96;100.00
3294;BME280;1659;51.470;6.770;2023-12-14T20:45:18;102438.13;;;4.94;100.00
3294;BME280;1659;51.470;6.770;2023-12-14T20:47:46;102445.13;;;4.94;100.00
3294;BME280;1659;51.470;6.770;2023-12-14T20:50:12;102446.84;;;4.93;100.00
3294;BME280;1659;51.470;6.770;2023-12-14T20:52:39;102451.19;;;4.92;100.00
3294;BME280;1659;51.470;6.770;2023-12-14T20:55:07;102455.53;;;4.92;100.00
3294;BME280;1659;51.470;6.770;2023-12-14T20:57:34;102459.91;;;4.91;100.00
3294;BME280;1659;51.470;6.770;2023-12-14T21:00:00;102458.16;;;4.92;100.00
3294;BME280;1659;51.470;6.770;2023-12-14T21:02:27;102458.97;;;4.89;100.00
3294;BME280;1659;51.470;6.770;2023-12-14T21:04:55;102458.97;;;4.89;100.00
3294;BME280;1659;51.470;6.770;2023-12-14T21:07:21;102464.22;;;4.89;100.00
3294;BME280;1659;51.470;6.770;2023-12-14T21:09:48;102460.66;;;4.89;100.00
3294;BME280;1659;51.470;6.770;2023-12-14T21:12:14;102463.28;;;4.89;100.00
3294;BME280;1659;51.470;6.770;2023-12-14T21:14:48;102463.28;;;4.89;100.00
3294;BME280;1659;51.470;6.770;2023-12-14T21:17:15;102465.91;;;4.89;100.00